Airfield :
LOGIN :

Register | Disclaimer

   EN    FR    IT 

 










Legend :    VFR   Marginal VFR   IFR   Intensive IFR   Very Intensive IFR
Visi :
Ceiling :
>= 8 km
>= 3000ft
5 to 8 km
1000 to 3000 ft
1500m to 5 km
500 to 1000 ft
800 to 1500m
200 to 500 ft
< 800m
< 200 ft
Symbols :   Thunderstorms  Fog  Heavy snow  Heavy precipitations  Wind > 20 kt
SIGMETs :     Misc.  Thunderstorms  Icing  Turbulence  Mountain Waves  Volcanic Ashes







- Airport Elevation : 276 ft


LYVR - Vršac International

CURRENT METAR :
  • 221630Z 36003KT 350V150 4000 -SN SCT006 BKN033 00/00 Q1009 R01/////// NOSIG

EXPIRED METARs :
  • 221600Z VRB04KT 4000 -SN SCT006 BKN033 00/00 Q1009 R01/////// NOSIG
  • 221530Z VRB05KT 3000 -SN BKN006 BKN033 00/00 Q1009 R01/////// NOSIG
  • 221500Z VRB02KT 3000 -SN BKN010 01/M00 Q1010 R01/////// NOSIG
  • 221430Z 03002KT 5000 -SN BKN008 01/00 Q1010 R01/////// NOSIG
  • 221400Z VRB02KT 2000 -SN BKN006 00/00 Q1010 R01/////// NOSIG

TAF TAF LYVR
Valid from the 22 at 12:00 until the 23 at 12:00 UTC


221100Z 2212/2312 12014KT 8000 SCT017 BKN030 TX03/2212Z TN00/2306Z
TEMPO 2212/2217 12020G30KT
TEMPO 2212/2301 5000 -SN BKN010 BKN027
No reported NOTAMs for that airfield.



MET'MAP, your aeronautical weather chart ! - Copyright ORBIFLY December 2007 - Disclaimer

ORBIFLY MET'MAP TEAM :

Programming & Development : Alexandra Zaïnal
Concept & Development : Baudouin d'Aumeries
Co-Development & Prog : Marc-Olivier Méhu
Technical & hardware support : Manuel Goepfert

Contact : metmap@orbifly.com




SOURCES & CREDITS :

   NOAA